Bronwood, Georgia
Current Conditions -  °F | °C
As of 3:35 AM on Sunday 23 Nov 2014 (Local Time) from KACJ Reporting Station
Light Rain Light Rain  
Wind Chill: 55°   Ceiling: 500
Heat Index: 55°   Visibility: 5mi
Dew Point: 55°   Wind: 10mph
Humidity: 100%   Direction: 80°E
Pressure: 30.07"   Gusts: NA
Location:  31.83°N, 84.36°W
Report Text: KACJ 230835Z AUTO 08009KT 5SM -RA BKN005 BKN014 OVC047 13/13 A3007 RMK AO2
Loading
Personal Weather Stations






























Interactive Weather Map New forecast layout! Learn more

10-Day Weather Forecast

Advertisements
Track Severe Weather on mobile